sensor_id;sensor_type;location;lat;lon;timestamp;P1;durP1;ratioP1;P2;durP2;ratioP2
79249;SDS011;68679;51.030;7.584;2023-04-24T00:01:15;1.73;;;0.60;;
79249;SDS011;68679;51.030;7.584;2023-04-24T00:03:41;1.23;;;0.82;;
79249;SDS011;68679;51.030;7.584;2023-04-24T00:06:07;1.48;;;0.80;;
79249;SDS011;68679;51.030;7.584;2023-04-24T00:08:33;1.10;;;0.70;;
79249;SDS011;68679;51.030;7.584;2023-04-24T00:10:59;2.45;;;0.73;;
79249;SDS011;68679;51.030;7.584;2023-04-24T00:13:25;1.42;;;0.80;;
79249;SDS011;68679;51.030;7.584;2023-04-24T00:15:50;4.00;;;0.90;;
79249;SDS011;68679;51.030;7.584;2023-04-24T00:18:16;1.42;;;0.88;;
79249;SDS011;68679;51.030;7.584;2023-04-24T00:20:41;1.83;;;0.82;;
79249;SDS011;68679;51.030;7.584;2023-04-24T00:23:08;1.60;;;0.80;;
79249;SDS011;68679;51.030;7.584;2023-04-24T00:25:34;5.15;;;1.30;;
79249;SDS011;68679;51.030;7.584;2023-04-24T00:27:59;1.35;;;1.00;;
79249;SDS011;68679;51.030;7.584;2023-04-24T00:30:24;1.27;;;0.80;;
79249;SDS011;68679;51.030;7.584;2023-04-24T00:32:50;1.33;;;0.87;;
79249;SDS011;68679;51.030;7.584;2023-04-24T00:35:15;2.30;;;0.80;;
79249;SDS011;68679;51.030;7.584;2023-04-24T00:37:41;2.30;;;0.82;;
79249;SDS011;68679;51.030;7.584;2023-04-24T00:40:06;2.17;;;0.80;;
79249;SDS011;68679;51.030;7.584;2023-04-24T00:42:32;1.70;;;0.90;;
79249;SDS011;68679;51.030;7.584;2023-04-24T00:44:58;1.52;;;0.88;;
79249;SDS011;68679;51.030;7.584;2023-04-24T00:47:24;1.83;;;0.90;;
79249;SDS011;68679;51.030;7.584;2023-04-24T00:49:50;1.45;;;0.80;;
79249;SDS011;68679;51.030;7.584;2023-04-24T00:52:15;2.87;;;0.90;;
79249;SDS011;68679;51.030;7.584;2023-04-24T00:54:42;1.75;;;0.98;;
79249;SDS011;68679;51.030;7.584;2023-04-24T00:57:09;2.33;;;0.80;;
79249;SDS011;68679;51.030;7.584;2023-04-24T00:59:34;1.50;;;0.85;;
79249;SDS011;68679;51.030;7.584;2023-04-24T01:02:01;2.63;;;0.80;;
79249;SDS011;68679;51.030;7.584;2023-04-24T01:04:26;1.23;;;0.80;;
79249;SDS011;68679;51.030;7.584;2023-04-24T01:06:52;1.85;;;0.80;;
79249;SDS011;68679;51.030;7.584;2023-04-24T01:09:17;1.77;;;0.90;;
79249;SDS011;68679;51.030;7.584;2023-04-24T01:11:43;2.42;;;0.95;;
79249;SDS011;68679;51.030;7.584;2023-04-24T01:14:09;2.50;;;1.00;;
79249;SDS011;68679;51.030;7.584;2023-04-24T01:16:35;1.35;;;0.73;;
79249;SDS011;68679;51.030;7.584;2023-04-24T01:19:00;1.27;;;0.73;;
79249;SDS011;68679;51.030;7.584;2023-04-24T01:21:27;2.22;;;0.90;;
79249;SDS011;68679;51.030;7.584;2023-04-24T01:23:55;1.77;;;0.70;;
79249;SDS011;68679;51.030;7.584;2023-04-24T01:26:21;1.52;;;0.90;;
79249;SDS011;68679;51.030;7.584;2023-04-24T01:28:48;1.65;;;0.70;;
79249;SDS011;68679;51.030;7.584;2023-04-24T01:31:14;1.02;;;0.80;;
79249;SDS011;68679;51.030;7.584;2023-04-24T01:33:40;1.00;;;0.68;;
79249;SDS011;68679;51.030;7.584;2023-04-24T01:36:06;1.48;;;0.88;;
79249;SDS011;68679;51.030;7.584;2023-04-24T01:38:33;1.50;;;0.70;;
79249;SDS011;68679;51.030;7.584;2023-04-24T01:40:58;1.77;;;0.80;;
79249;SDS011;68679;51.030;7.584;2023-04-24T01:43:24;1.50;;;0.60;;
79249;SDS011;68679;51.030;7.584;2023-04-24T01:45:50;0.82;;;0.70;;
79249;SDS011;68679;51.030;7.584;2023-04-24T01:48:15;2.43;;;1.00;;
79249;SDS011;68679;51.030;7.584;2023-04-24T01:50:40;2.37;;;0.70;;
79249;SDS011;68679;51.030;7.584;2023-04-24T01:53:05;0.77;;;0.60;;
79249;SDS011;68679;51.030;7.584;2023-04-24T01:55:31;2.20;;;0.80;;
79249;SDS011;68679;51.030;7.584;2023-04-24T01:57:56;2.60;;;0.77;;
79249;SDS011;68679;51.030;7.584;2023-04-24T02:00:24;2.78;;;0.95;;
79249;SDS011;68679;51.030;7.584;2023-04-24T02:02:49;1.50;;;0.80;;
79249;SDS011;68679;51.030;7.584;2023-04-24T02:05:15;1.40;;;0.75;;
79249;SDS011;68679;51.030;7.584;2023-04-24T02:07:40;1.77;;;0.80;;
79249;SDS011;68679;51.030;7.584;2023-04-24T02:10:06;1.90;;;0.60;;
79249;SDS011;68679;51.030;7.584;2023-04-24T02:12:31;1.80;;;0.73;;
79249;SDS011;68679;51.030;7.584;2023-04-24T02:14:56;1.37;;;0.60;;
79249;SDS011;68679;51.030;7.584;2023-04-24T02:17:22;4.32;;;1.20;;
79249;SDS011;68679;51.030;7.584;2023-04-24T02:19:47;2.97;;;1.30;;
79249;SDS011;68679;51.030;7.584;2023-04-24T02:22:13;3.05;;;1.60;;
79249;SDS011;68679;51.030;7.584;2023-04-24T02:24:38;3.47;;;1.50;;
79249;SDS011;68679;51.030;7.584;2023-04-24T02:27:04;3.75;;;1.58;;
79249;SDS011;68679;51.030;7.584;2023-04-24T02:29:29;2.15;;;1.33;;
79249;SDS011;68679;51.030;7.584;2023-04-24T02:31:55;3.05;;;1.75;;
79249;SDS011;68679;51.030;7.584;2023-04-24T02:34:20;2.90;;;1.70;;
79249;SDS011;68679;51.030;7.584;2023-04-24T02:36:46;3.22;;;1.50;;
79249;SDS011;68679;51.030;7.584;2023-04-24T02:39:11;3.20;;;1.53;;
79249;SDS011;68679;51.030;7.584;2023-04-24T02:41:36;4.03;;;1.90;;
79249;SDS011;68679;51.030;7.584;2023-04-24T02:44:02;5.03;;;1.80;;
79249;SDS011;68679;51.030;7.584;2023-04-24T02:46:27;3.37;;;1.80;;
79249;SDS011;68679;51.030;7.584;2023-04-24T02:48:52;3.53;;;1.90;;
79249;SDS011;68679;51.030;7.584;2023-04-24T02:51:17;2.40;;;1.47;;
79249;SDS011;68679;51.030;7.584;2023-04-24T02:53:43;3.63;;;1.97;;
79249;SDS011;68679;51.030;7.584;2023-04-24T02:56:08;4.87;;;2.00;;
79249;SDS011;68679;51.030;7.584;2023-04-24T02:58:33;2.93;;;1.73;;
79249;SDS011;68679;51.030;7.584;2023-04-24T03:00:59;3.30;;;1.80;;
79249;SDS011;68679;51.030;7.584;2023-04-24T03:03:25;2.83;;;1.83;;
79249;SDS011;68679;51.030;7.584;2023-04-24T03:05:50;2.90;;;1.73;;
79249;SDS011;68679;51.030;7.584;2023-04-24T03:08:15;3.40;;;1.87;;
79249;SDS011;68679;51.030;7.584;2023-04-24T03:10:41;3.63;;;2.20;;
79249;SDS011;68679;51.030;7.584;2023-04-24T03:13:07;3.45;;;2.00;;
79249;SDS011;68679;51.030;7.584;2023-04-24T03:15:32;4.30;;;2.20;;
79249;SDS011;68679;51.030;7.584;2023-04-24T03:17:57;3.45;;;1.92;;
79249;SDS011;68679;51.030;7.584;2023-04-24T03:20:23;3.83;;;2.35;;
79249;SDS011;68679;51.030;7.584;2023-04-24T03:22:48;2.90;;;1.90;;
79249;SDS011;68679;51.030;7.584;2023-04-24T03:25:13;3.20;;;2.10;;
79249;SDS011;68679;51.030;7.584;2023-04-24T03:27:39;6.43;;;2.03;;
79249;SDS011;68679;51.030;7.584;2023-04-24T03:30:05;3.95;;;2.00;;
79249;SDS011;68679;51.030;7.584;2023-04-24T03:32:34;4.85;;;2.05;;
79249;SDS011;68679;51.030;7.584;2023-04-24T03:34:59;3.72;;;2.03;;
79249;SDS011;68679;51.030;7.584;2023-04-24T03:37:25;6.32;;;2.60;;
79249;SDS011;68679;51.030;7.584;2023-04-24T03:39:51;7.32;;;2.53;;
79249;SDS011;68679;51.030;7.584;2023-04-24T03:42:16;4.65;;;2.40;;
79249;SDS011;68679;51.030;7.584;2023-04-24T03:44:42;5.03;;;2.53;;
79249;SDS011;68679;51.030;7.584;2023-04-24T03:47:07;5.90;;;3.10;;
79249;SDS011;68679;51.030;7.584;2023-04-24T03:49:32;5.53;;;3.37;;
79249;SDS011;68679;51.030;7.584;2023-04-24T03:51:58;4.87;;;2.87;;
79249;SDS011;68679;51.030;7.584;2023-04-24T03:54:23;9.87;;;3.80;;
79249;SDS011;68679;51.030;7.584;2023-04-24T03:56:48;6.70;;;3.33;;
79249;SDS011;68679;51.030;7.584;2023-04-24T03:59:13;8.10;;;3.87;;
79249;SDS011;68679;51.030;7.584;2023-04-24T04:01:39;7.07;;;3.87;;
79249;SDS011;68679;51.030;7.584;2023-04-24T04:04:05;7.70;;;3.85;;
79249;SDS011;68679;51.030;7.584;2023-04-24T04:06:30;6.53;;;3.83;;
79249;SDS011;68679;51.030;7.584;2023-04-24T04:08:56;7.68;;;3.28;;
79249;SDS011;68679;51.030;7.584;2023-04-24T04:11:22;10.00;;;4.15;;
79249;SDS011;68679;51.030;7.584;2023-04-24T04:13:47;7.38;;;3.88;;
79249;SDS011;68679;51.030;7.584;2023-04-24T04:16:13;8.95;;;4.95;;
79249;SDS011;68679;51.030;7.584;2023-04-24T04:18:38;10.23;;;4.20;;
79249;SDS011;68679;51.030;7.584;2023-04-24T04:21:03;8.60;;;4.27;;
79249;SDS011;68679;51.030;7.584;2023-04-24T04:23:28;6.57;;;3.67;;
79249;SDS011;68679;51.030;7.584;2023-04-24T04:25:54;7.13;;;4.20;;
79249;SDS011;68679;51.030;7.584;2023-04-24T04:28:20;10.43;;;4.15;;
79249;SDS011;68679;51.030;7.584;2023-04-24T04:30:45;8.18;;;4.20;;
79249;SDS011;68679;51.030;7.584;2023-04-24T04:33:12;6.70;;;3.70;;
79249;SDS011;68679;51.030;7.584;2023-04-24T04:35:37;10.40;;;4.37;;
79249;SDS011;68679;51.030;7.584;2023-04-24T04:38:02;8.20;;;4.20;;
79249;SDS011;68679;51.030;7.584;2023-04-24T04:40:27;6.77;;;4.07;;
79249;SDS011;68679;51.030;7.584;2023-04-24T04:42:53;9.13;;;4.22;;
79249;SDS011;68679;51.030;7.584;2023-04-24T04:45:18;7.65;;;4.10;;
79249;SDS011;68679;51.030;7.584;2023-04-24T04:47:45;7.68;;;4.38;;
79249;SDS011;68679;51.030;7.584;2023-04-24T04:50:10;6.47;;;3.92;;
79249;SDS011;68679;51.030;7.584;2023-04-24T04:52:36;6.63;;;3.80;;
79249;SDS011;68679;51.030;7.584;2023-04-24T04:55:01;6.20;;;3.80;;
79249;SDS011;68679;51.030;7.584;2023-04-24T04:57:27;6.70;;;3.92;;
79249;SDS011;68679;51.030;7.584;2023-04-24T04:59:53;7.85;;;4.28;;
79249;SDS011;68679;51.030;7.584;2023-04-24T05:02:18;5.57;;;3.35;;
79249;SDS011;68679;51.030;7.584;2023-04-24T05:04:44;8.75;;;4.53;;
79249;SDS011;68679;51.030;7.584;2023-04-24T05:07:10;7.15;;;4.53;;
79249;SDS011;68679;51.030;7.584;2023-04-24T05:09:35;8.43;;;4.25;;
79249;SDS011;68679;51.030;7.584;2023-04-24T05:12:01;8.10;;;3.97;;
79249;SDS011;68679;51.030;7.584;2023-04-24T05:14:27;7.45;;;4.03;;
79249;SDS011;68679;51.030;7.584;2023-04-24T05:16:52;9.50;;;3.57;;
79249;SDS011;68679;51.030;7.584;2023-04-24T05:19:17;9.27;;;4.60;;
79249;SDS011;68679;51.030;7.584;2023-04-24T05:21:43;7.37;;;4.10;;
79249;SDS011;68679;51.030;7.584;2023-04-24T05:24:08;6.67;;;4.00;;
79249;SDS011;68679;51.030;7.584;2023-04-24T05:26:33;6.82;;;3.85;;
79249;SDS011;68679;51.030;7.584;2023-04-24T05:29:00;6.72;;;3.83;;
79249;SDS011;68679;51.030;7.584;2023-04-24T05:31:26;7.57;;;4.00;;
79249;SDS011;68679;51.030;7.584;2023-04-24T05:33:51;7.23;;;4.20;;
79249;SDS011;68679;51.030;7.584;2023-04-24T05:36:17;6.63;;;3.80;;
79249;SDS011;68679;51.030;7.584;2023-04-24T05:38:42;7.10;;;3.70;;
79249;SDS011;68679;51.030;7.584;2023-04-24T05:41:07;8.30;;;4.03;;
79249;SDS011;68679;51.030;7.584;2023-04-24T05:43:32;6.80;;;3.93;;
79249;SDS011;68679;51.030;7.584;2023-04-24T05:45:58;6.10;;;3.83;;
79249;SDS011;68679;51.030;7.584;2023-04-24T05:48:23;7.28;;;3.45;;
79249;SDS011;68679;51.030;7.584;2023-04-24T05:50:49;7.90;;;4.70;;
79249;SDS011;68679;51.030;7.584;2023-04-24T05:53:14;8.43;;;4.00;;
79249;SDS011;68679;51.030;7.584;2023-04-24T05:55:39;7.07;;;4.13;;
79249;SDS011;68679;51.030;7.584;2023-04-24T05:58:05;8.18;;;4.03;;
79249;SDS011;68679;51.030;7.584;2023-04-24T06:00:31;7.63;;;3.85;;
79249;SDS011;68679;51.030;7.584;2023-04-24T06:02:56;8.27;;;3.72;;
79249;SDS011;68679;51.030;7.584;2023-04-24T06:05:22;5.45;;;3.70;;
79249;SDS011;68679;51.030;7.584;2023-04-24T06:07:47;7.63;;;3.80;;
79249;SDS011;68679;51.030;7.584;2023-04-24T06:10:13;8.07;;;3.85;;
79249;SDS011;68679;51.030;7.584;2023-04-24T06:12:38;7.43;;;4.23;;
79249;SDS011;68679;51.030;7.584;2023-04-24T06:15:03;7.65;;;3.78;;
79249;SDS011;68679;51.030;7.584;2023-04-24T06:17:29;5.95;;;3.67;;
79249;SDS011;68679;51.030;7.584;2023-04-24T06:19:55;6.72;;;3.83;;
79249;SDS011;68679;51.030;7.584;2023-04-24T06:22:20;6.73;;;3.63;;
79249;SDS011;68679;51.030;7.584;2023-04-24T06:24:46;7.47;;;3.87;;
79249;SDS011;68679;51.030;7.584;2023-04-24T06:27:13;7.80;;;3.53;;
79249;SDS011;68679;51.030;7.584;2023-04-24T06:29:38;7.70;;;3.90;;
79249;SDS011;68679;51.030;7.584;2023-04-24T06:32:03;6.67;;;3.40;;
79249;SDS011;68679;51.030;7.584;2023-04-24T06:34:29;8.25;;;4.15;;
79249;SDS011;68679;51.030;7.584;2023-04-24T06:36:55;8.45;;;4.07;;
79249;SDS011;68679;51.030;7.584;2023-04-24T06:39:21;7.55;;;4.07;;
79249;SDS011;68679;51.030;7.584;2023-04-24T06:41:46;6.50;;;3.90;;
79249;SDS011;68679;51.030;7.584;2023-04-24T06:44:11;9.43;;;4.30;;
79249;SDS011;68679;51.030;7.584;2023-04-24T06:46:36;6.93;;;3.97;;
79249;SDS011;68679;51.030;7.584;2023-04-24T06:49:02;7.25;;;3.95;;
79249;SDS011;68679;51.030;7.584;2023-04-24T06:51:27;8.97;;;4.80;;
79249;SDS011;68679;51.030;7.584;2023-04-24T06:53:53;7.07;;;4.13;;
79249;SDS011;68679;51.030;7.584;2023-04-24T06:56:18;8.40;;;4.20;;
79249;SDS011;68679;51.030;7.584;2023-04-24T06:58:44;7.80;;;4.10;;
79249;SDS011;68679;51.030;7.584;2023-04-24T07:01:10;6.50;;;3.95;;
79249;SDS011;68679;51.030;7.584;2023-04-24T07:03:36;6.90;;;4.10;;
79249;SDS011;68679;51.030;7.584;2023-04-24T07:06:01;10.30;;;4.80;;
79249;SDS011;68679;51.030;7.584;2023-04-24T07:08:28;8.07;;;4.60;;
79249;SDS011;68679;51.030;7.584;2023-04-24T07:10:55;7.53;;;4.28;;
79249;SDS011;68679;51.030;7.584;2023-04-24T07:13:21;7.68;;;4.43;;
79249;SDS011;68679;51.030;7.584;2023-04-24T07:15:47;7.85;;;4.70;;
79249;SDS011;68679;51.030;7.584;2023-04-24T07:18:15;8.95;;;4.47;;
79249;SDS011;68679;51.030;7.584;2023-04-24T07:20:40;8.83;;;5.47;;
79249;SDS011;68679;51.030;7.584;2023-04-24T07:23:06;7.63;;;4.60;;
79249;SDS011;68679;51.030;7.584;2023-04-24T07:25:31;8.40;;;4.87;;
79249;SDS011;68679;51.030;7.584;2023-04-24T07:27:56;9.27;;;4.40;;
79249;SDS011;68679;51.030;7.584;2023-04-24T07:30:22;9.38;;;5.13;;
79249;SDS011;68679;51.030;7.584;2023-04-24T07:32:47;8.27;;;4.47;;
79249;SDS011;68679;51.030;7.584;2023-04-24T07:35:12;10.87;;;4.70;;
79249;SDS011;68679;51.030;7.584;2023-04-24T07:37:38;7.00;;;3.53;;
79249;SDS011;68679;51.030;7.584;2023-04-24T07:40:03;8.17;;;3.90;;
79249;SDS011;68679;51.030;7.584;2023-04-24T07:42:29;7.00;;;3.55;;
79249;SDS011;68679;51.030;7.584;2023-04-24T07:44:59;8.05;;;3.72;;
79249;SDS011;68679;51.030;7.584;2023-04-24T07:47:24;8.55;;;4.40;;
79249;SDS011;68679;51.030;7.584;2023-04-24T07:49:50;7.25;;;4.22;;
79249;SDS011;68679;51.030;7.584;2023-04-24T07:52:15;9.23;;;5.43;;
79249;SDS011;68679;51.030;7.584;2023-04-24T07:54:41;7.80;;;4.67;;
79249;SDS011;68679;51.030;7.584;2023-04-24T07:57:07;9.65;;;5.30;;
79249;SDS011;68679;51.030;7.584;2023-04-24T07:59:33;9.25;;;5.35;;
79249;SDS011;68679;51.030;7.584;2023-04-24T08:01:58;10.15;;;4.43;;
79249;SDS011;68679;51.030;7.584;2023-04-24T08:04:24;6.63;;;4.25;;
79249;SDS011;68679;51.030;7.584;2023-04-24T08:06:49;6.03;;;3.77;;
79249;SDS011;68679;51.030;7.584;2023-04-24T08:09:14;7.10;;;3.38;;
79249;SDS011;68679;51.030;7.584;2023-04-24T08:11:40;5.23;;;2.77;;
79249;SDS011;68679;51.030;7.584;2023-04-24T08:14:05;5.43;;;2.57;;
79249;SDS011;68679;51.030;7.584;2023-04-24T08:16:32;4.67;;;2.83;;
79249;SDS011;68679;51.030;7.584;2023-04-24T08:18:57;4.57;;;2.63;;
79249;SDS011;68679;51.030;7.584;2023-04-24T08:21:23;4.33;;;2.47;;
79249;SDS011;68679;51.030;7.584;2023-04-24T08:23:48;3.97;;;1.87;;
79249;SDS011;68679;51.030;7.584;2023-04-24T08:26:13;4.67;;;2.13;;
79249;SDS011;68679;51.030;7.584;2023-04-24T08:28:39;3.13;;;1.40;;
79249;SDS011;68679;51.030;7.584;2023-04-24T08:31:04;1.53;;;0.80;;
79249;SDS011;68679;51.030;7.584;2023-04-24T08:33:29;1.38;;;0.85;;
79249;SDS011;68679;51.030;7.584;2023-04-24T08:36:03;1.33;;;0.77;;
79249;SDS011;68679;51.030;7.584;2023-04-24T08:38:29;1.17;;;0.70;;
79249;SDS011;68679;51.030;7.584;2023-04-24T08:40:54;2.08;;;0.85;;
79249;SDS011;68679;51.030;7.584;2023-04-24T08:43:21;1.80;;;0.70;;
79249;SDS011;68679;51.030;7.584;2023-04-24T08:45:47;0.95;;;0.52;;
79249;SDS011;68679;51.030;7.584;2023-04-24T08:48:12;2.83;;;0.73;;
79249;SDS011;68679;51.030;7.584;2023-04-24T08:50:38;1.48;;;0.75;;
79249;SDS011;68679;51.030;7.584;2023-04-24T08:53:06;1.38;;;0.77;;
79249;SDS011;68679;51.030;7.584;2023-04-24T08:55:33;1.58;;;0.80;;
79249;SDS011;68679;51.030;7.584;2023-04-24T08:57:59;2.33;;;0.90;;
79249;SDS011;68679;51.030;7.584;2023-04-24T09:00:26;1.65;;;0.80;;
79249;SDS011;68679;51.030;7.584;2023-04-24T09:02:52;1.27;;;0.70;;
79249;SDS011;68679;51.030;7.584;2023-04-24T09:05:18;1.92;;;1.02;;
79249;SDS011;68679;51.030;7.584;2023-04-24T09:07:48;0.85;;;0.57;;
79249;SDS011;68679;51.030;7.584;2023-04-24T09:10:16;1.20;;;0.70;;
79249;SDS011;68679;51.030;7.584;2023-04-24T09:12:42;1.65;;;0.57;;
79249;SDS011;68679;51.030;7.584;2023-04-24T09:15:09;1.67;;;0.90;;
79249;SDS011;68679;51.030;7.584;2023-04-24T09:17:35;1.50;;;0.90;;
79249;SDS011;68679;51.030;7.584;2023-04-24T09:20:01;1.60;;;0.83;;
79249;SDS011;68679;51.030;7.584;2023-04-24T09:22:29;1.27;;;0.80;;
79249;SDS011;68679;51.030;7.584;2023-04-24T09:25:04;1.80;;;0.93;;
79249;SDS011;68679;51.030;7.584;2023-04-24T09:29:58;2.78;;;0.95;;
79249;SDS011;68679;51.030;7.584;2023-04-24T09:32:24;2.60;;;1.10;;
79249;SDS011;68679;51.030;7.584;2023-04-24T09:35:04;3.25;;;1.27;;
79249;SDS011;68679;51.030;7.584;2023-04-24T09:37:41;2.08;;;1.20;;
79249;SDS011;68679;51.030;7.584;2023-04-24T09:40:12;2.92;;;1.15;;
79249;SDS011;68679;51.030;7.584;2023-04-24T09:42:45;2.17;;;1.15;;
79249;SDS011;68679;51.030;7.584;2023-04-24T09:45:11;2.28;;;1.35;;
79249;SDS011;68679;51.030;7.584;2023-04-24T09:47:37;3.22;;;1.33;;
79249;SDS011;68679;51.030;7.584;2023-04-24T09:50:14;3.13;;;1.20;;
79249;SDS011;68679;51.030;7.584;2023-04-24T09:52:44;3.47;;;1.40;;
79249;SDS011;68679;51.030;7.584;2023-04-24T09:55:16;3.22;;;1.75;;
79249;SDS011;68679;51.030;7.584;2023-04-24T09:57:50;2.78;;;1.33;;
79249;SDS011;68679;51.030;7.584;2023-04-24T10:00:23;5.07;;;1.67;;
79249;SDS011;68679;51.030;7.584;2023-04-24T10:03:11;2.97;;;1.80;;
79249;SDS011;68679;51.030;7.584;2023-04-24T10:05:37;4.38;;;1.85;;
79249;SDS011;68679;51.030;7.584;2023-04-24T10:08:04;5.88;;;2.05;;
79249;SDS011;68679;51.030;7.584;2023-04-24T10:10:37;3.35;;;2.10;;
79249;SDS011;68679;51.030;7.584;2023-04-24T10:13:04;3.53;;;2.40;;
79249;SDS011;68679;51.030;7.584;2023-04-24T10:15:30;4.20;;;2.42;;
79249;SDS011;68679;51.030;7.584;2023-04-24T10:17:55;6.60;;;2.33;;
79249;SDS011;68679;51.030;7.584;2023-04-24T10:20:23;4.00;;;2.33;;
79249;SDS011;68679;51.030;7.584;2023-04-24T10:22:52;5.35;;;2.35;;
79249;SDS011;68679;51.030;7.584;2023-04-24T10:25:19;4.22;;;2.00;;
79249;SDS011;68679;51.030;7.584;2023-04-24T10:27:47;5.57;;;2.25;;
79249;SDS011;68679;51.030;7.584;2023-04-24T10:30:13;3.95;;;2.17;;
79249;SDS011;68679;51.030;7.584;2023-04-24T10:32:39;3.80;;;2.08;;
79249;SDS011;68679;51.030;7.584;2023-04-24T10:35:08;4.45;;;1.70;;
79249;SDS011;68679;51.030;7.584;2023-04-24T10:37:36;3.60;;;1.95;;
79249;SDS011;68679;51.030;7.584;2023-04-24T10:40:04;3.03;;;1.58;;
79249;SDS011;68679;51.030;7.584;2023-04-24T10:42:30;3.67;;;1.60;;
79249;SDS011;68679;51.030;7.584;2023-04-24T10:44:55;3.47;;;1.40;;
79249;SDS011;68679;51.030;7.584;2023-04-24T10:47:22;2.53;;;1.50;;
79249;SDS011;68679;51.030;7.584;2023-04-24T10:49:49;4.13;;;1.70;;
79249;SDS011;68679;51.030;7.584;2023-04-24T10:52:15;3.33;;;1.65;;
79249;SDS011;68679;51.030;7.584;2023-04-24T10:54:42;3.72;;;2.05;;
79249;SDS011;68679;51.030;7.584;2023-04-24T10:59:45;5.38;;;2.75;;
79249;SDS011;68679;51.030;7.584;2023-04-24T11:02:14;5.22;;;2.58;;
79249;SDS011;68679;51.030;7.584;2023-04-24T11:04:40;5.68;;;3.00;;
79249;SDS011;68679;51.030;7.584;2023-04-24T11:07:08;6.15;;;3.35;;
79249;SDS011;68679;51.030;7.584;2023-04-24T11:09:34;10.68;;;4.25;;
79249;SDS011;68679;51.030;7.584;2023-04-24T11:12:05;9.65;;;3.90;;
79249;SDS011;68679;51.030;7.584;2023-04-24T11:15:07;10.02;;;4.45;;
79249;SDS011;68679;51.030;7.584;2023-04-24T11:17:30;7.13;;;4.18;;
79249;SDS011;68679;51.030;7.584;2023-04-24T11:20:03;7.10;;;3.90;;
79249;SDS011;68679;51.030;7.584;2023-04-24T11:22:33;9.27;;;3.92;;
79249;SDS011;68679;51.030;7.584;2023-04-24T11:25:02;8.65;;;4.55;;
79249;SDS011;68679;51.030;7.584;2023-04-24T11:27:30;8.45;;;4.43;;
79249;SDS011;68679;51.030;7.584;2023-04-24T11:34:52;9.43;;;4.17;;
79249;SDS011;68679;51.030;7.584;2023-04-24T11:37:29;9.98;;;4.10;;
79249;SDS011;68679;51.030;7.584;2023-04-24T11:39:59;10.68;;;3.85;;
79249;SDS011;68679;51.030;7.584;2023-04-24T11:42:24;10.40;;;4.30;;
79249;SDS011;68679;51.030;7.584;2023-04-24T11:44:53;6.85;;;2.97;;
79249;SDS011;68679;51.030;7.584;2023-04-24T11:47:29;5.70;;;2.47;;
79249;SDS011;68679;51.030;7.584;2023-04-24T11:49:55;7.32;;;3.05;;
79249;SDS011;68679;51.030;7.584;2023-04-24T11:52:20;7.10;;;2.87;;
79249;SDS011;68679;51.030;7.584;2023-04-24T11:54:49;6.23;;;3.00;;
79249;SDS011;68679;51.030;7.584;2023-04-24T11:57:15;8.60;;;3.40;;
79249;SDS011;68679;51.030;7.584;2023-04-24T11:59:41;8.13;;;3.75;;
79249;SDS011;68679;51.030;7.584;2023-04-24T12:02:06;7.10;;;3.53;;
79249;SDS011;68679;51.030;7.584;2023-04-24T12:04:38;11.10;;;3.60;;
79249;SDS011;68679;51.030;7.584;2023-04-24T12:07:05;10.18;;;3.35;;
79249;SDS011;68679;51.030;7.584;2023-04-24T12:09:46;9.00;;;3.75;;
79249;SDS011;68679;51.030;7.584;2023-04-24T12:12:13;9.43;;;3.20;;
79249;SDS011;68679;51.030;7.584;2023-04-24T12:17:23;12.25;;;4.30;;
79249;SDS011;68679;51.030;7.584;2023-04-24T12:19:50;8.48;;;3.72;;
79249;SDS011;68679;51.030;7.584;2023-04-24T12:22:15;16.77;;;5.32;;
79249;SDS011;68679;51.030;7.584;2023-04-24T12:27:29;8.32;;;3.83;;
79249;SDS011;68679;51.030;7.584;2023-04-24T12:29:56;9.00;;;3.67;;
79249;SDS011;68679;51.030;7.584;2023-04-24T12:32:22;10.60;;;5.18;;
79249;SDS011;68679;51.030;7.584;2023-04-24T12:34:49;11.05;;;3.60;;
79249;SDS011;68679;51.030;7.584;2023-04-24T12:37:15;11.60;;;3.83;;
79249;SDS011;68679;51.030;7.584;2023-04-24T12:39:44;6.60;;;4.30;;
79249;SDS011;68679;51.030;7.584;2023-04-24T12:42:27;10.02;;;4.03;;
79249;SDS011;68679;51.030;7.584;2023-04-24T12:44:57;9.98;;;4.03;;
79249;SDS011;68679;51.030;7.584;2023-04-24T12:47:24;11.65;;;4.13;;
79249;SDS011;68679;51.030;7.584;2023-04-24T12:49:50;9.32;;;4.53;;
79249;SDS011;68679;51.030;7.584;2023-04-24T12:52:17;10.23;;;4.07;;
79249;SDS011;68679;51.030;7.584;2023-04-24T12:54:44;10.63;;;4.85;;
79249;SDS011;68679;51.030;7.584;2023-04-24T12:57:10;9.65;;;3.78;;
79249;SDS011;68679;51.030;7.584;2023-04-24T12:59:35;9.60;;;4.07;;
79249;SDS011;68679;51.030;7.584;2023-04-24T13:02:01;35.60;;;17.97;;
79249;SDS011;68679;51.030;7.584;2023-04-24T13:04:26;15.97;;;6.00;;
79249;SDS011;68679;51.030;7.584;2023-04-24T13:06:51;17.07;;;4.37;;
79249;SDS011;68679;51.030;7.584;2023-04-24T13:09:16;9.00;;;3.40;;
79249;SDS011;68679;51.030;7.584;2023-04-24T13:11:42;10.37;;;3.37;;
79249;SDS011;68679;51.030;7.584;2023-04-24T13:14:07;7.17;;;3.50;;
79249;SDS011;68679;51.030;7.584;2023-04-24T13:16:32;12.67;;;4.63;;
79249;SDS011;68679;51.030;7.584;2023-04-24T13:18:58;11.27;;;4.28;;
79249;SDS011;68679;51.030;7.584;2023-04-24T13:21:23;8.27;;;3.10;;
79249;SDS011;68679;51.030;7.584;2023-04-24T13:23:48;9.63;;;3.67;;
79249;SDS011;68679;51.030;7.584;2023-04-24T13:26:14;10.98;;;3.67;;
79249;SDS011;68679;51.030;7.584;2023-04-24T13:28:39;9.60;;;3.55;;
79249;SDS011;68679;51.030;7.584;2023-04-24T13:31:04;7.70;;;3.70;;
79249;SDS011;68679;51.030;7.584;2023-04-24T13:33:31;9.50;;;4.15;;
79249;SDS011;68679;51.030;7.584;2023-04-24T13:35:56;9.67;;;3.30;;
79249;SDS011;68679;51.030;7.584;2023-04-24T13:38:22;9.18;;;3.42;;
79249;SDS011;68679;51.030;7.584;2023-04-24T13:40:48;9.00;;;3.70;;
79249;SDS011;68679;51.030;7.584;2023-04-24T13:43:13;8.65;;;4.05;;
79249;SDS011;68679;51.030;7.584;2023-04-24T13:45:39;10.18;;;3.58;;
79249;SDS011;68679;51.030;7.584;2023-04-24T13:48:04;5.80;;;3.33;;
79249;SDS011;68679;51.030;7.584;2023-04-24T13:50:29;9.02;;;3.53;;
79249;SDS011;68679;51.030;7.584;2023-04-24T13:52:55;14.60;;;4.30;;
79249;SDS011;68679;51.030;7.584;2023-04-24T13:55:21;12.73;;;3.60;;
79249;SDS011;68679;51.030;7.584;2023-04-24T13:57:47;12.25;;;4.07;;
79249;SDS011;68679;51.030;7.584;2023-04-24T14:00:12;8.43;;;3.50;;
79249;SDS011;68679;51.030;7.584;2023-04-24T14:02:38;13.27;;;3.75;;
79249;SDS011;68679;51.030;7.584;2023-04-24T14:05:03;5.73;;;3.27;;
79249;SDS011;68679;51.030;7.584;2023-04-24T14:07:29;6.88;;;3.38;;
79249;SDS011;68679;51.030;7.584;2023-04-24T14:09:55;8.70;;;3.60;;
79249;SDS011;68679;51.030;7.584;2023-04-24T14:12:20;8.30;;;3.03;;
79249;SDS011;68679;51.030;7.584;2023-04-24T14:14:46;6.05;;;2.92;;
79249;SDS011;68679;51.030;7.584;2023-04-24T14:17:13;6.57;;;2.60;;
79249;SDS011;68679;51.030;7.584;2023-04-24T14:19:38;7.07;;;2.63;;
79249;SDS011;68679;51.030;7.584;2023-04-24T14:22:03;5.80;;;2.63;;
79249;SDS011;68679;51.030;7.584;2023-04-24T14:24:29;5.67;;;2.83;;
79249;SDS011;68679;51.030;7.584;2023-04-24T14:26:54;9.23;;;3.20;;
79249;SDS011;68679;51.030;7.584;2023-04-24T14:29:21;6.60;;;2.85;;
79249;SDS011;68679;51.030;7.584;2023-04-24T14:31:46;6.88;;;2.88;;
79249;SDS011;68679;51.030;7.584;2023-04-24T14:34:12;7.03;;;2.80;;
79249;SDS011;68679;51.030;7.584;2023-04-24T14:36:38;6.40;;;2.65;;
79249;SDS011;68679;51.030;7.584;2023-04-24T14:39:04;7.23;;;2.80;;
79249;SDS011;68679;51.030;7.584;2023-04-24T14:41:31;7.38;;;2.80;;
79249;SDS011;68679;51.030;7.584;2023-04-24T14:43:58;8.02;;;2.85;;
79249;SDS011;68679;51.030;7.584;2023-04-24T14:46:23;7.50;;;3.33;;
79249;SDS011;68679;51.030;7.584;2023-04-24T14:48:49;8.57;;;3.07;;
79249;SDS011;68679;51.030;7.584;2023-04-24T14:51:14;6.03;;;2.90;;
79249;SDS011;68679;51.030;7.584;2023-04-24T14:53:39;9.80;;;3.07;;
79249;SDS011;68679;51.030;7.584;2023-04-24T14:56:05;5.05;;;3.00;;